Sirius — WDA2145 — position and weather

sailwx.info

Track history (hours):
 
Tides and Currents Weather Stations Pressure Air Temp Water Temp Dewpoint Dewpoint Depression Visibility Wind Speed Wind Dir Waves Ship Positions

Sirius

Owner: TISBURY TOWING AND TRANSPORTATION INC, TISBURY, MA. More information available from US FCC via Universal Licensing System and Coast Guard Vessel Documentation Center.

Last reported at 2015-Sep-22 10:29 UTC. Time now 2016-Feb-13 00:20 UTC.
Position N 41°17' W 070°06'.
Warning: this ship's position is months out of date.

Length 19 m; draft 1.9 m.

Type: Towing. MMSI: 367181040.

Date/timePositionNaut miles runAvg speedWind from/ knotsBaromVisibWave heightAir tempDewpointWater temp
2015-Sep-22 10:29N 41°17' W 070°06'0 0.0
2015-Sep-22 09:32N 41°17' W 070°06'0 0.0
2015-Sep-22 08:33N 41°17' W 070°06'1 1.4
2015-Sep-22 07:29N 41°18' W 070°06'5 5.2
2015-Sep-22 06:31N 41°23' W 070°09'6 6.5
2015-Sep-22 05:33N 41°26' W 070°16'6 6.2
2015-Sep-22 04:33N 41°27' W 070°24'5 5.5
2015-Sep-22 03:33N 41°29' W 070°32'5 4.9
2015-Sep-22 02:33N 41°30' W 070°38'4 4.0
2015-Sep-22 01:27N 41°32' W 070°43'6 6.3
2015-Sep-22 00:33N 41°33' W 070°50'5 5.2
2015-Sep-21 23:34N 41°37' W 070°54'  
2015-Sep-16 19:23N 41°27' W 070°36'0 0.1
2015-Sep-16 18:22N 41°27' W 070°36'0 0.1
2015-Sep-16 17:22N 41°27' W 070°36'3 3.1
2015-Sep-16 16:33N 41°30' W 070°37'7 7.4
2015-Sep-16 15:33N 41°32' W 070°46'8 6.9
2015-Sep-16 14:23N 41°38' W 070°54'7 1.0
2015-Sep-16 07:10N 41°33' W 070°48'5 7.8
2015-Sep-16 06:31N 41°31' W 070°41'6 5.9
2015-Sep-16 05:33N 41°27' W 070°36'  
Track history (hours):
 
Tides and Currents Weather Stations Pressure Air Temp Water Temp Dewpoint Dewpoint Depression Visibility Wind Speed Wind Dir Waves Ship Positions

Sirius

Owner: TISBURY TOWING AND TRANSPORTATION INC, TISBURY, MA. More information available from US FCC via Universal Licensing System and Coast Guard Vessel Documentation Center.

Last reported at 2015-Sep-22 10:29 UTC. Time now 2016-Feb-13 00:20 UTC.
Position N 41°17' W 070°06'.
Warning: this ship's position is months out of date.

Length 19 m; draft 1.9 m.

Type: Towing. MMSI: 367181040.

Date/timePositionNaut miles runAvg speedWind from/ knotsBaromVisibWave heightAir tempDewpointWater temp
2015-Sep-22 10:29N 41°17' W 070°06'0 0.0
2015-Sep-22 09:32N 41°17' W 070°06'0 0.0
2015-Sep-22 08:33N 41°17' W 070°06'1 1.4
2015-Sep-22 07:29N 41°18' W 070°06'5 5.2
2015-Sep-22 06:31N 41°23' W 070°09'6 6.5
2015-Sep-22 05:33N 41°26' W 070°16'6 6.2
2015-Sep-22 04:33N 41°27' W 070°24'5 5.5
2015-Sep-22 03:33N 41°29' W 070°32'5 4.9
2015-Sep-22 02:33N 41°30' W 070°38'4 4.0
2015-Sep-22 01:27N 41°32' W 070°43'6 6.3
2015-Sep-22 00:33N 41°33' W 070°50'5 5.2
2015-Sep-21 23:34N 41°37' W 070°54'  
2015-Sep-16 19:23N 41°27' W 070°36'0 0.1
2015-Sep-16 18:22N 41°27' W 070°36'0 0.1
2015-Sep-16 17:22N 41°27' W 070°36'3 3.1
2015-Sep-16 16:33N 41°30' W 070°37'7 7.4
2015-Sep-16 15:33N 41°32' W 070°46'8 6.9
2015-Sep-16 14:23N 41°38' W 070°54'7 1.0
2015-Sep-16 07:10N 41°33' W 070°48'5 7.8
2015-Sep-16 06:31N 41°31' W 070°41'6 5.9
2015-Sep-16 05:33N 41°27' W 070°36'  

Dump ship's entire track history